createdAt,value
2017-01-13T00:00:14.486Z,9.26
2017-01-13T00:00:55.034Z,9.31
2017-01-13T00:01:35.559Z,9.29
2017-01-13T00:02:16.039Z,9.15
2017-01-13T00:02:56.552Z,9.31
2017-01-13T00:03:37.039Z,9.26
2017-01-13T00:04:17.537Z,9.18
2017-01-13T00:04:59.026Z,9.18
2017-01-13T00:05:39.555Z,9.11
2017-01-13T00:06:20.297Z,9.15
2017-01-13T00:07:00.566Z,9.21
2017-01-13T00:07:41.324Z,9.23
2017-01-13T00:08:21.786Z,9.14
2017-01-13T00:09:06.011Z,9.1
2017-01-13T00:09:46.633Z,9.18
2017-01-13T00:10:27.109Z,9.11
2017-01-13T00:11:07.606Z,9.04
2017-01-13T00:11:48.107Z,9.05
2017-01-13T00:12:28.615Z,9.14
2017-01-13T00:13:09.069Z,9.04
2017-01-13T00:13:49.566Z,9.04
2017-01-13T00:14:30.076Z,9.05
2017-01-13T00:15:10.540Z,9.02
2017-01-13T00:15:51.082Z,9.05
2017-01-13T00:16:31.528Z,8.98
2017-01-13T00:17:12.032Z,8.98
2017-01-13T00:17:52.646Z,9.04
2017-01-13T00:18:33.259Z,8.99
2017-01-13T00:19:13.711Z,9.02
2017-01-13T00:19:54.137Z,9.1
2017-01-13T00:20:34.637Z,9.11
2017-01-13T00:21:15.121Z,9.18
2017-01-13T00:21:55.717Z,9.15
2017-01-13T00:22:36.150Z,9.29
2017-01-13T00:23:16.639Z,9.1
2017-01-13T00:23:57.102Z,9.14
2017-01-13T00:24:37.543Z,9.17
2017-01-13T00:25:18.045Z,9.14
2017-01-13T00:25:58.566Z,9.08
2017-01-13T00:26:39.056Z,9.02
2017-01-13T00:27:19.530Z,9.13
2017-01-13T00:28:00.044Z,9.14
2017-01-13T00:28:40.540Z,8.96
2017-01-13T00:29:21.033Z,8.95
2017-01-13T00:30:01.752Z,8.8
2017-01-13T00:30:42.263Z,9.02
2017-01-13T00:31:22.814Z,8.91
2017-01-13T00:32:03.331Z,8.84
2017-01-13T00:32:43.801Z,8.83
2017-01-13T00:33:24.270Z,8.83
2017-01-13T00:34:04.777Z,8.83
2017-01-13T00:34:45.237Z,8.76
2017-01-13T00:35:25.753Z,8.77
2017-01-13T00:36:06.240Z,8.87
2017-01-13T00:36:46.728Z,8.89
2017-01-13T00:37:27.196Z,8.84
2017-01-13T00:38:07.747Z,8.8
2017-01-13T00:38:48.219Z,8.76
2017-01-13T00:39:28.667Z,8.77
2017-01-13T00:40:09.235Z,8.83
2017-01-13T00:40:49.624Z,8.76
2017-01-13T00:41:30.168Z,8.81
2017-01-13T00:42:10.668Z,8.84
2017-01-13T00:42:51.195Z,8.79
2017-01-13T00:43:31.645Z,8.83
2017-01-13T00:44:12.119Z,8.84
2017-01-13T00:44:52.625Z,8.81
2017-01-13T00:45:33.090Z,8.81
2017-01-13T00:46:13.592Z,8.74
2017-01-13T00:46:54.097Z,8.86
2017-01-13T00:47:34.607Z,8.76
2017-01-13T00:48:15.032Z,8.71
2017-01-13T00:48:55.534Z,8.76
2017-01-13T00:49:36.005Z,8.71
2017-01-13T00:50:16.521Z,8.74
2017-01-13T00:50:57.043Z,8.66
2017-01-13T00:51:37.440Z,8.7
2017-01-13T00:52:17.958Z,8.74
2017-01-13T00:52:58.432Z,8.68
2017-01-13T00:53:38.971Z,8.7
2017-01-13T00:54:19.517Z,8.62
2017-01-13T00:55:00.017Z,8.74
2017-01-13T00:55:40.534Z,8.81
2017-01-13T00:56:21.174Z,8.66
2017-01-13T00:57:01.831Z,8.77
2017-01-13T00:57:42.299Z,8.77
2017-01-13T00:58:22.724Z,8.76
2017-01-13T00:59:03.262Z,8.83
2017-01-13T00:59:43.713Z,8.66
2017-01-13T01:00:24.244Z,8.65
2017-01-13T01:01:04.747Z,8.83
2017-01-13T01:01:45.249Z,8.8
2017-01-13T01:02:25.747Z,8.62
2017-01-13T01:03:06.263Z,8.63
2017-01-13T01:03:46.807Z,8.63
2017-01-13T01:04:27.233Z,8.79
2017-01-13T01:05:07.776Z,8.62
2017-01-13T01:05:48.237Z,8.65
2017-01-13T01:06:28.683Z,8.79
2017-01-13T01:07:09.150Z,8.63
2017-01-13T01:07:49.659Z,8.63
2017-01-13T01:08:30.119Z,8.68
2017-01-13T01:09:10.645Z,8.47
2017-01-13T01:09:51.069Z,8.47
2017-01-13T01:10:31.621Z,8.43
2017-01-13T01:11:12.084Z,8.52
2017-01-13T01:11:52.601Z,8.56
2017-01-13T01:12:33.075Z,8.47
2017-01-13T01:13:13.672Z,8.52
2017-01-13T01:13:54.046Z,8.43
2017-01-13T01:14:34.723Z,8.37
2017-01-13T01:15:15.134Z,8.5
2017-01-13T01:15:55.648Z,8.47
2017-01-13T01:16:36.190Z,8.4
2017-01-13T01:17:16.737Z,8.28
2017-01-13T01:17:57.139Z,8.33
2017-01-13T01:18:37.685Z,8.36
2017-01-13T01:19:18.190Z,8.28
2017-01-13T01:19:58.676Z,8.38
2017-01-13T01:20:39.195Z,8.36
2017-01-13T01:21:20.115Z,8.23
2017-01-13T01:22:00.444Z,8.33
2017-01-13T01:22:41.017Z,8.16
2017-01-13T01:23:21.405Z,8.26
2017-01-13T01:24:01.933Z,8.25
2017-01-13T01:24:42.411Z,8.28
2017-01-13T01:25:22.968Z,8.41
2017-01-13T01:26:03.410Z,8.36
2017-01-13T01:26:43.949Z,8.28
2017-01-13T01:27:24.416Z,8.28
2017-01-13T01:28:04.929Z,8.3
2017-01-13T01:28:45.440Z,8.28
2017-01-13T01:29:25.914Z,8.25
2017-01-13T01:30:06.405Z,8.22
2017-01-13T01:30:46.981Z,8.29
2017-01-13T01:31:27.483Z,8.25
2017-01-13T01:32:07.902Z,8.29
2017-01-13T01:32:48.404Z,8.29
2017-01-13T01:33:28.941Z,8.29
2017-01-13T01:34:09.374Z,8.28
2017-01-13T01:34:49.891Z,8.29
2017-01-13T01:35:30.365Z,8.29
2017-01-13T01:36:10.875Z,8.28
2017-01-13T01:36:51.317Z,8.2
2017-01-13T01:37:31.883Z,8.22
2017-01-13T01:38:12.365Z,8.3
2017-01-13T01:38:52.797Z,8.29
2017-01-13T01:39:33.342Z,8.23
2017-01-13T01:40:13.877Z,8.26
2017-01-13T01:40:54.614Z,8.28
2017-01-13T01:41:35.291Z,8.36
2017-01-13T01:42:15.667Z,8.4
2017-01-13T01:42:56.113Z,8.28
2017-01-13T01:43:36.610Z,8.26
2017-01-13T01:44:17.127Z,8.26
2017-01-13T01:44:57.600Z,8.23
2017-01-13T01:45:38.082Z,8.18
2017-01-13T01:46:18.554Z,8.25
2017-01-13T01:46:59.158Z,8.23
2017-01-13T01:47:39.602Z,8.19
2017-01-13T01:48:20.081Z,8.23
2017-01-13T01:49:00.629Z,8.2
2017-01-13T01:49:41.115Z,8.25
2017-01-13T01:50:21.570Z,8.25
2017-01-13T01:51:02.111Z,8.29
2017-01-13T01:51:42.549Z,8.29
2017-01-13T01:52:23.179Z,8.3
2017-01-13T01:53:03.573Z,8.37
2017-01-13T01:53:44.126Z,8.33
2017-01-13T01:54:24.591Z,8.38
2017-01-13T01:55:05.096Z,8.38
2017-01-13T01:55:45.563Z,8.29
2017-01-13T01:56:26.077Z,8.38
2017-01-13T01:57:06.781Z,8.29
2017-01-13T01:57:47.171Z,8.28
2017-01-13T01:58:27.623Z,8.29
2017-01-13T01:59:08.535Z,8.3
2017-01-13T01:59:48.783Z,8.29
2017-01-13T02:00:29.287Z,8.2
2017-01-13T02:01:09.780Z,8.22
2017-01-13T02:01:50.248Z,8.28
2017-01-13T02:02:30.743Z,8.28
2017-01-13T02:03:11.286Z,8.34
2017-01-13T02:03:51.807Z,8.38
2017-01-13T02:04:32.260Z,8.37
2017-01-13T02:05:12.792Z,8.29
2017-01-13T02:05:53.234Z,8.28
2017-01-13T02:06:33.733Z,8.29
2017-01-13T02:07:14.344Z,8.38
2017-01-13T02:07:54.785Z,8.37
2017-01-13T02:08:35.443Z,8.4
2017-01-13T02:09:15.916Z,8.43
2017-01-13T02:09:56.441Z,8.34
2017-01-13T02:10:36.968Z,8.5
2017-01-13T02:11:17.423Z,8.41
2017-01-13T02:11:57.969Z,8.4
2017-01-13T02:12:38.425Z,8.34
2017-01-13T02:13:18.955Z,8.36
2017-01-13T02:13:59.465Z,8.38
2017-01-13T02:14:39.899Z,8.33
2017-01-13T02:15:20.513Z,8.29
2017-01-13T02:16:01.093Z,8.36
2017-01-13T02:16:41.717Z,8.4
2017-01-13T02:17:22.191Z,8.48
2017-01-13T02:18:02.789Z,8.38
2017-01-13T02:18:43.269Z,8.37
2017-01-13T02:19:23.781Z,8.43
2017-01-13T02:20:04.281Z,8.33
2017-01-13T02:20:44.772Z,8.38
2017-01-13T02:21:25.335Z,8.45
2017-01-13T02:22:05.859Z,8.5
2017-01-13T02:22:46.325Z,8.37
2017-01-13T02:23:26.880Z,8.43
2017-01-13T02:24:07.371Z,8.4
2017-01-13T02:24:47.837Z,8.34
2017-01-13T02:25:28.417Z,8.29
2017-01-13T02:26:09.060Z,8.36
2017-01-13T02:26:49.580Z,8.33
2017-01-13T02:27:30.098Z,8.38
2017-01-13T02:28:10.609Z,8.22
2017-01-13T02:28:51.178Z,8.19
2017-01-13T02:29:31.749Z,8.33
2017-01-13T02:30:12.351Z,8.28
2017-01-13T02:30:52.908Z,8.34
2017-01-13T02:31:33.341Z,8.4
2017-01-13T02:32:13.978Z,8.4
2017-01-13T02:32:54.472Z,8.44
2017-01-13T02:33:35.039Z,8.44
2017-01-13T02:34:15.498Z,8.28
2017-01-13T02:34:55.985Z,8.3
2017-01-13T02:35:36.437Z,8.41
2017-01-13T02:36:16.965Z,8.45
2017-01-13T02:36:57.585Z,8.37
2017-01-13T02:37:38.047Z,8.4
2017-01-13T02:38:18.754Z,8.33
2017-01-13T02:38:59.208Z,8.43
2017-01-13T02:39:39.694Z,8.41
2017-01-13T02:40:20.190Z,8.28
2017-01-13T02:41:00.817Z,8.36
2017-01-13T02:41:41.260Z,8.34
2017-01-13T02:42:22.635Z,8.33
2017-01-13T02:43:03.145Z,8.3
2017-01-13T02:43:43.618Z,8.45
2017-01-13T02:44:24.159Z,8.43
2017-01-13T02:45:04.765Z,8.52
2017-01-13T02:45:45.205Z,8.58
2017-01-13T02:46:25.787Z,8.55
2017-01-13T02:47:06.417Z,8.43
2017-01-13T02:47:46.924Z,8.45
2017-01-13T02:48:27.394Z,8.45
2017-01-13T02:49:07.921Z,8.55
2017-01-13T02:49:48.425Z,8.43
2017-01-13T02:50:28.923Z,8.41
2017-01-13T02:51:09.692Z,8.22
2017-01-13T02:51:50.108Z,8.29
2017-01-13T02:52:30.660Z,8.28
2017-01-13T02:53:11.065Z,8.37
2017-01-13T02:53:51.580Z,8.26
2017-01-13T02:54:32.094Z,8.16
2017-01-13T02:55:12.566Z,8.08
2017-01-13T02:55:53.079Z,8.2
2017-01-13T02:56:33.658Z,8.1
2017-01-13T02:57:14.172Z,8.15
2017-01-13T02:57:54.766Z,8.16
2017-01-13T02:58:35.278Z,8.05
2017-01-13T02:59:15.652Z,8.11
2017-01-13T02:59:56.213Z,8.11
2017-01-13T03:00:36.927Z,8.2
2017-01-13T03:01:17.571Z,8.05
2017-01-13T03:01:58.022Z,8.15
2017-01-13T03:02:38.769Z,8.11
2017-01-13T03:03:20.598Z,8.12
2017-01-13T03:04:02.161Z,8.08
2017-01-13T03:04:43.006Z,8.11
2017-01-13T03:05:24.614Z,8.05
2017-01-13T03:06:04.868Z,8.01
2017-01-13T03:06:45.399Z,7.86
2017-01-13T03:07:25.787Z,8.02
2017-01-13T03:08:06.265Z,8.02
2017-01-13T03:08:46.876Z,7.85
2017-01-13T03:09:27.329Z,7.95
2017-01-13T03:10:07.903Z,7.79
2017-01-13T03:10:48.358Z,7.82
2017-01-13T03:11:28.826Z,7.75
2017-01-13T03:12:09.294Z,7.82
2017-01-13T03:12:49.763Z,7.75
2017-01-13T03:13:30.242Z,7.61
2017-01-13T03:14:10.777Z,7.74
2017-01-13T03:14:51.225Z,7.8
2017-01-13T03:15:31.753Z,7.57
2017-01-13T03:16:12.350Z,7.6
2017-01-13T03:16:52.833Z,7.45
2017-01-13T03:17:33.342Z,7.43
2017-01-13T03:18:13.839Z,7.35
2017-01-13T03:18:54.452Z,7.28
2017-01-13T03:19:34.837Z,7.31
2017-01-13T03:20:15.350Z,7.3
2017-01-13T03:20:55.872Z,7.4
2017-01-13T03:21:36.345Z,7.32
2017-01-13T03:22:16.801Z,7.42
2017-01-13T03:22:57.324Z,7.45
2017-01-13T03:23:37.858Z,7.45
2017-01-13T03:24:18.434Z,7.42
2017-01-13T03:24:58.961Z,7.42
2017-01-13T03:25:39.394Z,7.25
2017-01-13T03:26:19.845Z,7.28
2017-01-13T03:27:00.344Z,7.28
2017-01-13T03:27:40.971Z,7.42
2017-01-13T03:28:21.452Z,7.49
2017-01-13T03:29:01.998Z,7.53
2017-01-13T03:29:42.759Z,7.46
2017-01-13T03:30:23.382Z,7.5
2017-01-13T03:31:04.485Z,7.46
2017-01-13T03:31:44.979Z,7.46
2017-01-13T03:32:25.577Z,7.34
2017-01-13T03:33:06.059Z,7.35
2017-01-13T03:33:46.494Z,7.4
2017-01-13T03:34:27.071Z,7.37
2017-01-13T03:35:07.896Z,7.42
2017-01-13T03:35:48.403Z,7.21
2017-01-13T03:36:28.858Z,7.16
2017-01-13T03:37:09.644Z,7.32
2017-01-13T03:37:50.080Z,7.31
2017-01-13T03:38:30.579Z,7.4
2017-01-13T03:39:11.115Z,7.4
2017-01-13T03:39:51.628Z,7.31
2017-01-13T03:40:32.155Z,7.35
2017-01-13T03:41:12.651Z,7.28
2017-01-13T03:41:53.147Z,7.3
2017-01-13T03:42:33.662Z,7.34
2017-01-13T03:43:14.101Z,7.32
2017-01-13T03:43:54.581Z,7.34
2017-01-13T03:44:35.041Z,7.4
2017-01-13T03:45:15.576Z,7.3
2017-01-13T03:45:56.075Z,7.37
2017-01-13T03:46:36.534Z,7.32
2017-01-13T03:47:17.065Z,7.21
2017-01-13T03:47:57.513Z,7.2
2017-01-13T03:48:38.025Z,7.13
2017-01-13T03:49:18.494Z,7.24
2017-01-13T03:49:58.974Z,7.21
2017-01-13T03:50:39.479Z,7.13
2017-01-13T03:51:20.118Z,7.17
2017-01-13T03:52:00.553Z,7.25
2017-01-13T03:52:41.075Z,7.28
2017-01-13T03:53:21.535Z,7.15
2017-01-13T03:54:02.012Z,7.17
2017-01-13T03:54:42.483Z,7.3
2017-01-13T03:55:22.960Z,7.3
2017-01-13T03:56:03.469Z,7.3
2017-01-13T03:56:44.030Z,7.28
2017-01-13T03:57:24.502Z,7.25
2017-01-13T03:58:04.955Z,7.31
2017-01-13T03:58:45.465Z,7.31
2017-01-13T03:59:25.882Z,7.32
2017-01-13T04:00:06.364Z,7.32
2017-01-13T04:00:46.836Z,7.23
2017-01-13T04:01:27.302Z,7.2
2017-01-13T04:02:07.844Z,7.28
2017-01-13T04:02:48.331Z,7.34
2017-01-13T04:03:28.863Z,7.28
2017-01-13T04:04:09.292Z,7.28
2017-01-13T04:04:49.809Z,7.31
2017-01-13T04:05:30.269Z,7.32
2017-01-13T04:06:10.705Z,7.27
2017-01-13T04:06:51.222Z,7.42
2017-01-13T04:07:31.679Z,7.17
2017-01-13T04:08:12.179Z,7.25
2017-01-13T04:08:52.680Z,7.2
2017-01-13T04:09:33.163Z,7.13
2017-01-13T04:10:13.659Z,7.2
2017-01-13T04:10:54.184Z,7.23
2017-01-13T04:11:34.629Z,7.3
2017-01-13T04:12:15.081Z,7.31
2017-01-13T04:12:55.617Z,7.25
2017-01-13T04:13:36.073Z,7.27
2017-01-13T04:14:16.592Z,7.1
2017-01-13T04:14:57.072Z,7.15
2017-01-13T04:15:37.568Z,7.16
2017-01-13T04:16:18.004Z,7.12
2017-01-13T04:16:58.505Z,7.16
2017-01-13T04:17:39.054Z,7.17
2017-01-13T04:18:19.538Z,7.12
2017-01-13T04:19:00.002Z,7.15
2017-01-13T04:19:40.541Z,7.21
2017-01-13T04:20:21.025Z,7.25
2017-01-13T04:21:01.488Z,7.28
2017-01-13T04:21:41.961Z,7.3
2017-01-13T04:22:22.533Z,7.39
2017-01-13T04:23:03.043Z,7.34
2017-01-13T04:23:43.499Z,7.27
2017-01-13T04:24:24.044Z,7.23
2017-01-13T04:25:04.536Z,7.24
2017-01-13T04:27:18.063Z,7.21
2017-01-13T04:27:58.328Z,7.12
2017-01-13T04:28:38.853Z,7.09
2017-01-13T04:29:19.315Z,7.15
2017-01-13T04:29:59.874Z,7.15
2017-01-13T04:30:40.278Z,7.2
2017-01-13T04:31:20.750Z,7.07
2017-01-13T04:32:01.272Z,7.16
2017-01-13T04:32:41.760Z,7.1
2017-01-13T04:33:22.307Z,7.13
2017-01-13T04:34:02.745Z,7.17
2017-01-13T04:34:43.255Z,7.21
2017-01-13T04:35:23.771Z,7.3
2017-01-13T04:36:04.318Z,7.17
2017-01-13T04:36:44.793Z,7.17
2017-01-13T04:37:25.293Z,7.16
2017-01-13T04:38:05.750Z,7.13
2017-01-13T04:38:46.218Z,7.07
2017-01-13T04:39:26.707Z,7.24
2017-01-13T04:40:07.193Z,7.13
2017-01-13T04:40:47.735Z,7.07
2017-01-13T04:41:28.197Z,7.1
2017-01-13T04:42:08.830Z,7.17
2017-01-13T04:42:49.333Z,7.12
2017-01-13T04:43:29.821Z,7.2
2017-01-13T04:44:10.255Z,7.12
2017-01-13T04:44:50.843Z,7.21
2017-01-13T04:45:31.365Z,7.21
2017-01-13T04:46:12.507Z,7.12
2017-01-13T04:46:52.338Z,7.2
2017-01-13T04:47:32.840Z,7.23
2017-01-13T04:48:13.352Z,7.05
2017-01-13T04:48:53.819Z,7.09
2017-01-13T04:49:34.323Z,7.05
2017-01-13T04:50:14.822Z,7.05
2017-01-13T04:50:55.267Z,6.92
2017-01-13T04:51:35.810Z,6.98
2017-01-13T04:52:16.248Z,7.1
2017-01-13T04:52:56.761Z,7.15
2017-01-13T04:53:37.283Z,7.24
2017-01-13T04:54:17.781Z,7.15
2017-01-13T04:54:58.274Z,7.06
2017-01-13T04:55:38.825Z,6.98
2017-01-13T04:56:19.229Z,6.92
2017-01-13T04:56:59.699Z,6.94
2017-01-13T04:57:40.176Z,6.89
2017-01-13T04:58:20.683Z,6.99
2017-01-13T04:59:01.215Z,6.95
2017-01-13T04:59:41.654Z,6.94
2017-01-13T05:00:22.127Z,6.87
2017-01-13T05:01:02.655Z,6.95
2017-01-13T05:01:43.134Z,6.91
2017-01-13T05:02:23.665Z,7.05
2017-01-13T05:03:04.122Z,7.1
2017-01-13T05:03:44.637Z,7.1
2017-01-13T05:04:25.183Z,7.16
2017-01-13T05:05:05.757Z,7.07
2017-01-13T05:05:46.212Z,7.03
2017-01-13T05:06:26.693Z,7.06
2017-01-13T05:07:07.179Z,7.09
2017-01-13T05:07:47.677Z,7.13
2017-01-13T05:08:28.161Z,7.07
2017-01-13T05:09:08.955Z,7.05
2017-01-13T05:09:49.541Z,7.12
2017-01-13T05:10:30.035Z,7.12
2017-01-13T05:11:10.564Z,7.02
2017-01-13T05:11:51.087Z,7.09
2017-01-13T05:12:31.499Z,7.13
2017-01-13T05:13:12.098Z,6.97
2017-01-13T05:13:52.540Z,7.12
2017-01-13T05:14:32.994Z,6.99
2017-01-13T05:15:13.526Z,7.02
2017-01-13T05:15:54.080Z,7.1
2017-01-13T05:16:34.603Z,7.1
2017-01-13T05:17:15.101Z,7.16
2017-01-13T05:17:55.522Z,7.23
2017-01-13T05:18:36.006Z,7.12
2017-01-13T05:19:16.549Z,6.99
2017-01-13T05:19:57.281Z,6.98
2017-01-13T05:20:37.814Z,7.09
2017-01-13T05:21:18.359Z,6.88
2017-01-13T05:21:58.743Z,7.03
2017-01-13T05:22:39.283Z,6.98
2017-01-13T05:23:19.839Z,7.03
2017-01-13T05:24:00.196Z,7.05
2017-01-13T05:24:40.701Z,7.07
2017-01-13T05:25:21.217Z,6.94
2017-01-13T05:26:01.736Z,6.99
2017-01-13T05:26:42.186Z,7.02
2017-01-13T05:27:23.016Z,7.09
2017-01-13T05:28:03.524Z,7.17
2017-01-13T05:28:43.967Z,7.03
2017-01-13T05:29:24.499Z,7.07
2017-01-13T05:30:05.026Z,6.91
2017-01-13T05:30:45.457Z,6.99
2017-01-13T05:31:25.951Z,6.95
2017-01-13T05:32:06.450Z,6.98
2017-01-13T05:32:47.114Z,6.94
2017-01-13T05:33:27.660Z,7.06
2017-01-13T05:34:08.075Z,6.92
2017-01-13T05:34:48.600Z,6.94
2017-01-13T05:35:29.120Z,6.95
2017-01-13T05:36:09.551Z,6.8
2017-01-13T05:36:50.108Z,6.85
2017-01-13T05:37:30.570Z,6.84
2017-01-13T05:38:11.085Z,6.79
2017-01-13T05:38:51.581Z,6.8
2017-01-13T05:39:32.085Z,6.89
2017-01-13T05:40:12.579Z,6.85
2017-01-13T05:40:53.005Z,6.79
2017-01-13T05:41:33.667Z,6.76
2017-01-13T05:42:14.208Z,6.79
2017-01-13T05:42:54.747Z,6.91
2017-01-13T05:43:35.219Z,6.99
2017-01-13T05:44:15.713Z,6.99
2017-01-13T05:44:56.118Z,7.07
2017-01-13T05:45:36.890Z,7.1
2017-01-13T05:46:17.363Z,7.12
2017-01-13T05:46:57.825Z,7.12
2017-01-13T05:47:38.320Z,7.1
2017-01-13T05:48:18.890Z,7.17
2017-01-13T05:48:59.335Z,7.07
2017-01-13T05:49:39.830Z,7.02
2017-01-13T05:50:20.273Z,6.94
2017-01-13T05:51:00.780Z,6.92
2017-01-13T05:51:41.294Z,6.97
2017-01-13T05:52:21.861Z,6.98
2017-01-13T05:53:02.444Z,6.92
2017-01-13T05:53:43.084Z,7.03
2017-01-13T05:54:23.430Z,6.97
2017-01-13T05:55:04.024Z,6.97
2017-01-13T05:55:44.440Z,6.85
2017-01-13T05:56:24.902Z,6.74
2017-01-13T05:57:05.440Z,6.84
2017-01-13T05:57:45.926Z,6.69
2017-01-13T05:58:26.419Z,6.69
2017-01-13T05:59:06.995Z,6.76
2017-01-13T05:59:47.398Z,6.8
2017-01-13T06:00:27.970Z,6.61
2017-01-13T06:01:08.670Z,6.56
2017-01-13T06:01:48.988Z,6.69
2017-01-13T06:02:30.644Z,6.7
2017-01-13T06:03:11.189Z,6.74
2017-01-13T06:03:51.944Z,6.71
2017-01-13T06:04:35.561Z,6.74
2017-01-13T06:05:16.488Z,6.81
2017-01-13T06:05:57.073Z,6.71
2017-01-13T06:06:38.031Z,6.84
2017-01-13T06:07:18.604Z,6.79
2017-01-13T06:09:35.953Z,6.88
2017-01-13T06:10:20.403Z,6.98
2017-01-13T06:11:01.185Z,6.98
2017-01-13T06:11:41.646Z,6.98
2017-01-13T06:13:30.995Z,6.87
2017-01-13T06:14:19.328Z,6.95
2017-01-13T06:15:07.470Z,6.98
2017-01-13T06:15:53.182Z,6.84
2017-01-13T06:16:34.419Z,6.88
2017-01-13T06:17:15.218Z,6.85
2017-01-13T06:17:55.656Z,6.99
2017-01-13T06:18:36.414Z,6.95
2017-01-13T06:19:17.273Z,6.88
2017-01-13T06:19:58.035Z,6.99
2017-01-13T06:20:39.327Z,7.05
2017-01-13T06:21:23.166Z,7.09
2017-01-13T06:22:04.058Z,7.06
2017-01-13T06:22:45.147Z,6.91
2017-01-13T06:23:25.680Z,6.84
2017-01-13T06:24:06.149Z,6.62
2017-01-13T06:24:46.699Z,6.81
2017-01-13T06:25:27.221Z,6.73
2017-01-13T06:26:08.019Z,6.76
2017-01-13T06:26:48.134Z,6.84
2017-01-13T06:27:28.822Z,6.92
2017-01-13T06:28:09.470Z,6.92
2017-01-13T06:28:50.088Z,7.21
2017-01-13T06:29:30.864Z,7.37
2017-01-13T06:30:11.369Z,7.45
2017-01-13T06:30:52.132Z,7.52
2017-01-13T06:31:32.659Z,7.4
2017-01-13T06:32:13.137Z,7.49
2017-01-13T06:32:53.617Z,7.49
2017-01-13T06:33:34.905Z,7.72
2017-01-13T06:34:15.244Z,7.61
2017-01-13T06:34:55.823Z,7.49
2017-01-13T06:35:36.804Z,7.4
2017-01-13T06:36:20.040Z,7.3
2017-01-13T06:39:36.622Z,7.21
2017-01-13T06:40:18.043Z,7.12
2017-01-13T06:40:58.818Z,7.24
2017-01-13T06:41:40.310Z,7.25
2017-01-13T06:42:20.044Z,7.34
2017-01-13T06:43:01.482Z,7.32
2017-01-13T06:43:42.348Z,7.31
2017-01-13T06:44:22.799Z,7.52
2017-01-13T06:45:03.724Z,7.55
2017-01-13T06:45:45.156Z,7.4
2017-01-13T06:46:26.969Z,7.15
2017-01-13T06:47:09.020Z,7.17
2017-01-13T06:47:49.783Z,7.02
2017-01-13T06:48:30.612Z,6.81
2017-01-13T06:49:10.790Z,6.69
2017-01-13T06:49:52.684Z,6.69
2017-01-13T06:50:33.390Z,6.74
2017-01-13T06:51:13.877Z,6.84
2017-01-13T06:51:54.481Z,6.73
2017-01-13T06:52:34.979Z,6.59
2017-01-13T06:53:15.534Z,6.59
2017-01-13T06:53:56.057Z,6.59
2017-01-13T06:54:36.638Z,6.79
2017-01-13T06:55:17.181Z,6.76
2017-01-13T06:55:57.705Z,6.67
2017-01-13T06:56:38.357Z,6.66
2017-01-13T06:57:18.841Z,6.58
2017-01-13T06:57:59.951Z,6.67
2017-01-13T06:58:40.619Z,6.64
2017-01-13T06:59:21.329Z,6.58
2017-01-13T07:00:01.705Z,6.58
2017-01-13T07:00:42.243Z,6.67
2017-01-13T07:02:39.950Z,6.62
2017-01-13T07:03:20.462Z,6.62
2017-01-13T07:04:00.969Z,6.76
2017-01-13T07:04:41.508Z,6.61
2017-01-13T07:05:21.972Z,6.67
2017-01-13T07:06:02.490Z,6.69
2017-01-13T07:06:42.985Z,6.58
2017-01-13T07:07:23.524Z,6.61
2017-01-13T07:08:04.056Z,6.46
2017-01-13T07:08:45.020Z,6.4
2017-01-13T07:09:25.176Z,6.49
2017-01-13T07:10:05.648Z,6.54
2017-01-13T07:10:46.204Z,6.66
2017-01-13T07:11:26.638Z,6.88
2017-01-13T07:12:07.128Z,7.34
2017-01-13T07:12:47.630Z,7.07
2017-01-13T07:13:28.105Z,7.16
2017-01-13T07:14:08.642Z,6.91
2017-01-13T07:14:49.148Z,7.03
2017-01-13T07:15:29.669Z,7.28
2017-01-13T07:16:10.180Z,7.27
2017-01-13T07:16:50.675Z,7.43
2017-01-13T07:17:31.158Z,7.69
2017-01-13T07:18:11.669Z,7.52
2017-01-13T07:18:52.165Z,7.35
2017-01-13T07:19:32.653Z,7.57
2017-01-13T07:20:13.131Z,7.71
2017-01-13T07:20:53.619Z,7.77
2017-01-13T07:21:34.139Z,7.53
2017-01-13T07:22:14.599Z,7.43
2017-01-13T07:22:55.106Z,7.2
2017-01-13T07:23:35.616Z,7.06
2017-01-13T07:24:16.117Z,6.99
2017-01-13T07:24:56.631Z,7.13
2017-01-13T07:25:37.140Z,7.3
2017-01-13T07:26:17.663Z,7.72
2017-01-13T07:26:58.200Z,7.82
2017-01-13T07:27:38.669Z,7.89
2017-01-13T07:28:19.151Z,7.97
2017-01-13T07:28:59.626Z,8.04
2017-01-13T07:29:40.138Z,8.01
2017-01-13T07:30:20.628Z,7.9
2017-01-13T07:31:01.172Z,7.6
2017-01-13T07:31:41.626Z,7.85
2017-01-13T07:32:22.095Z,8.11
2017-01-13T07:33:02.626Z,8.18
2017-01-13T07:33:43.137Z,8.22
2017-01-13T07:34:23.626Z,8.04
2017-01-13T07:35:04.150Z,8.07
2017-01-13T07:35:44.628Z,7.98
2017-01-13T07:36:25.108Z,7.85
2017-01-13T07:38:02.979Z,7.52
2017-01-13T07:38:43.503Z,7.5
2017-01-13T07:39:23.985Z,7.43
2017-01-13T07:40:04.502Z,7.49
2017-01-13T07:40:45.006Z,7.39
2017-01-13T07:41:25.503Z,7.46
2017-01-13T07:42:06.016Z,7.49
2017-01-13T07:42:46.492Z,7.39
2017-01-13T07:43:27.003Z,7.35
2017-01-13T07:44:07.658Z,7.39
2017-01-13T07:44:48.377Z,7.4
2017-01-13T07:45:28.983Z,7.43
2017-01-13T07:46:09.537Z,7.48
2017-01-13T07:46:50.046Z,7.35
2017-01-13T07:47:30.525Z,7.32
2017-01-13T07:48:11.026Z,7.21
2017-01-13T07:48:51.513Z,7.05
2017-01-13T07:49:31.993Z,7.13
2017-01-13T07:51:19.991Z,6.91
2017-01-13T07:52:01.610Z,7.03
2017-01-13T07:52:42.102Z,7.09
2017-01-13T07:53:22.581Z,7.15
2017-01-13T07:54:03.119Z,7.31
2017-01-13T07:54:43.695Z,7.34
2017-01-13T07:55:25.293Z,7.42
2017-01-13T07:56:05.883Z,7.42
2017-01-13T07:56:46.311Z,7.3
2017-01-13T07:57:27.679Z,7.46
2017-01-13T07:58:07.242Z,7.8
2017-01-13T07:58:47.716Z,7.95
2017-01-13T07:59:28.239Z,8.05
2017-01-13T08:00:08.700Z,8.07
2017-01-13T08:00:49.204Z,8.28
2017-01-13T08:01:29.749Z,8.08
2017-01-13T08:02:10.230Z,8.25
2017-01-13T08:02:50.766Z,8.33
2017-01-13T08:03:31.286Z,8.18
2017-01-13T08:04:11.816Z,8.04
2017-01-13T08:04:52.271Z,7.98
2017-01-13T08:05:32.837Z,7.77
2017-01-13T08:06:13.364Z,7.5
2017-01-13T08:06:53.811Z,7.53
2017-01-13T08:07:34.333Z,7.68
2017-01-13T08:08:14.862Z,7.72
2017-01-13T08:08:55.368Z,7.79
2017-01-13T08:09:37.204Z,7.86
2017-01-13T08:10:17.659Z,8.07
2017-01-13T08:10:58.170Z,8.18
2017-01-13T08:11:38.690Z,8.26
2017-01-13T08:12:19.184Z,8.11
2017-01-13T08:12:59.703Z,8.33
2017-01-13T08:13:40.178Z,8.37
2017-01-13T08:14:20.673Z,8.56
2017-01-13T08:15:01.184Z,8.41
2017-01-13T08:15:41.683Z,8.29
2017-01-13T08:16:22.372Z,8.29
2017-01-13T08:17:02.921Z,8.55
2017-01-13T08:17:43.429Z,8.5
2017-01-13T08:18:23.922Z,8.33
2017-01-13T08:19:04.415Z,8.7
2017-01-13T08:19:44.938Z,8.76
2017-01-13T08:20:25.456Z,8.65
2017-01-13T08:21:05.977Z,8.66
2017-01-13T08:21:46.556Z,8.48
2017-01-13T08:22:27.062Z,8.34
2017-01-13T08:23:07.586Z,8.37
2017-01-13T08:23:49.042Z,8.4
2017-01-13T08:24:29.546Z,8.25
2017-01-13T08:25:10.044Z,8.26
2017-01-13T08:25:50.665Z,8.11
2017-01-13T08:26:31.095Z,8.2
2017-01-13T08:27:11.622Z,8.2
2017-01-13T08:27:52.111Z,8.12
2017-01-13T08:28:32.595Z,8.12
2017-01-13T08:29:13.070Z,8.22
2017-01-13T08:29:53.568Z,8.34
2017-01-13T08:30:34.078Z,8.33
2017-01-13T08:31:14.571Z,8.1
2017-01-13T08:31:55.093Z,8.07
2017-01-13T08:32:35.573Z,8.16
2017-01-13T08:33:16.053Z,8.26
2017-01-13T08:33:57.900Z,8.34
2017-01-13T08:34:38.388Z,8.29
2017-01-13T08:35:18.889Z,8.19
2017-01-13T08:35:59.432Z,8.28
2017-01-13T08:36:39.877Z,8.23
2017-01-13T08:37:20.363Z,8.19
2017-01-13T08:38:00.896Z,8.11
2017-01-13T08:38:41.391Z,8.11
2017-01-13T08:39:21.869Z,8.05
2017-01-13T08:40:02.348Z,8.12
2017-01-13T08:40:42.819Z,8.05
2017-01-13T08:41:23.415Z,8.22
2017-01-13T08:42:03.998Z,8.02
2017-01-13T08:42:44.520Z,8.08
2017-01-13T08:43:25.010Z,8.11
2017-01-13T08:44:05.576Z,8.08
2017-01-13T08:44:46.072Z,8.07
2017-01-13T08:45:26.727Z,8.19
2017-01-13T08:46:07.188Z,8.08
2017-01-13T08:46:47.734Z,7.98
2017-01-13T08:47:28.208Z,8.01
2017-01-13T08:48:08.671Z,8.1
2017-01-13T08:48:49.150Z,8.19
2017-01-13T08:49:30.196Z,8.11
2017-01-13T08:50:10.136Z,8.08
2017-01-13T08:50:50.628Z,8.19
2017-01-13T08:52:44.255Z,8.65
2017-01-13T08:53:24.494Z,8.7
2017-01-13T08:54:05.044Z,8.58
2017-01-13T08:54:45.546Z,8.59
2017-01-13T08:55:26.063Z,8.41
2017-01-13T08:56:06.527Z,8.41
2017-01-13T08:56:47.794Z,8.56
2017-01-13T08:57:28.309Z,8.58
2017-01-13T08:58:08.818Z,8.68
2017-01-13T08:58:49.339Z,8.7
2017-01-13T08:59:29.839Z,8.53
2017-01-13T09:00:10.292Z,8.66
2017-01-13T09:00:50.785Z,8.41
2017-01-13T09:01:31.325Z,8.41
2017-01-13T09:02:11.765Z,8.29
2017-01-13T09:02:52.259Z,8.3
2017-01-13T09:03:32.753Z,8.37
2017-01-13T09:04:13.929Z,8.38
2017-01-13T09:04:54.907Z,8.4
2017-01-13T09:05:35.042Z,8.47
2017-01-13T09:07:55.001Z,8.36
2017-01-13T09:08:34.524Z,8.59
2017-01-13T09:09:15.619Z,8.53
2017-01-13T09:09:56.130Z,8.74
2017-01-13T09:10:36.641Z,8.65
2017-01-13T09:11:17.168Z,8.84
2017-01-13T09:11:57.699Z,8.76
2017-01-13T09:12:38.196Z,8.83
2017-01-13T09:13:18.707Z,8.74
2017-01-13T09:13:59.213Z,8.74
2017-01-13T09:14:39.721Z,8.66
2017-01-13T09:15:20.224Z,8.62